createdAt,value
2018-06-10T00:00:48.610Z,98.86
2018-06-10T00:01:57.502Z,98.48
2018-06-10T00:03:06.389Z,98.77
2018-06-10T00:04:15.017Z,99.25
2018-06-10T00:05:23.642Z,98.48
2018-06-10T00:06:32.269Z,98.58
2018-06-10T00:07:41.154Z,98.86
2018-06-10T00:08:50.039Z,99.15
2018-06-10T00:09:58.663Z,99.15
2018-06-10T00:11:07.289Z,98.86
2018-06-10T00:12:16.173Z,98.58
2018-06-10T00:13:24.800Z,99.06
2018-06-10T00:14:33.425Z,98.68
2018-06-10T00:15:42.054Z,98.77
2018-06-10T00:16:50.677Z,99.06
2018-06-10T00:17:59.305Z,98.68
2018-06-10T00:19:07.932Z,98.86
2018-06-10T00:20:16.558Z,98.72
2018-06-10T00:21:25.184Z,98.77
2018-06-10T00:22:34.072Z,98.63
2018-06-10T00:23:42.698Z,98.77
2018-06-10T00:24:51.322Z,99.01
2018-06-10T00:25:59.948Z,98.77
2018-06-10T00:27:08.574Z,99.2
2018-06-10T00:28:17.200Z,99.58
2018-06-10T00:29:25.825Z,99.3
2018-06-10T00:30:34.711Z,99.58
2018-06-10T00:31:43.335Z,99.4
2018-06-10T00:32:51.966Z,99.2
2018-06-10T00:34:00.591Z,99.3
2018-06-10T00:35:09.216Z,99.3
2018-06-10T00:36:17.841Z,99.4
2018-06-10T00:37:26.727Z,99.1
2018-06-10T00:38:35.358Z,99.49
2018-06-10T00:39:43.983Z,99.1
2018-06-10T00:40:52.609Z,99.3
2018-06-10T00:42:01.497Z,99.78
2018-06-10T00:43:10.120Z,99.97
2018-06-10T00:44:18.744Z,99.68
2018-06-10T00:45:27.379Z,99.87
2018-06-10T00:46:36.006Z,99.68
2018-06-10T00:47:44.896Z,99.68
2018-06-10T00:48:53.521Z,99.87
2018-06-10T00:50:02.422Z,99.68
2018-06-10T00:51:11.051Z,99.68
2018-06-10T00:52:20.199Z,99.68
2018-06-10T00:53:28.825Z,99.49
2018-06-10T00:54:37.496Z,99.68
2018-06-10T00:55:46.075Z,99.68
2018-06-10T00:56:54.700Z,99.68
2018-06-10T00:58:03.323Z,99.58
2018-06-10T00:59:11.948Z,99.63
2018-06-10T01:00:20.848Z,99.68
2018-06-10T01:01:29.477Z,99.68
2018-06-10T01:02:38.102Z,99.68
2018-06-10T01:03:46.727Z,99.68
2018-06-10T01:04:55.353Z,99.63
2018-06-10T01:06:03.978Z,99.63
2018-06-10T01:07:12.863Z,99.68
2018-06-10T01:08:21.489Z,99.58
2018-06-10T01:09:30.116Z,99.78
2018-06-10T01:10:38.743Z,99.63
2018-06-10T01:11:47.372Z,99.54
2018-06-10T01:12:55.997Z,99.58
2018-06-10T01:14:04.623Z,99.78
2018-06-10T01:15:13.250Z,99.78
2018-06-10T01:16:21.872Z,99.68
2018-06-10T01:17:30.499Z,99.87
2018-06-10T01:18:39.123Z,99.68
2018-06-10T01:19:47.745Z,99.68
2018-06-10T01:20:56.641Z,99.78
2018-06-10T01:22:05.526Z,99.78
2018-06-10T01:23:14.680Z,99.3
2018-06-10T01:24:23.307Z,99.1
2018-06-10T01:25:31.929Z,99.4
2018-06-10T01:26:40.555Z,99.2
2018-06-10T01:27:49.180Z,99.2
2018-06-10T01:28:58.071Z,99.58
2018-06-10T01:30:06.701Z,99.49
2018-06-10T01:31:15.325Z,99.1
2018-06-10T01:32:23.951Z,99.78
2018-06-10T01:33:32.583Z,99.87
2018-06-10T01:34:41.209Z,99.78
2018-06-10T01:35:49.834Z,99.87
2018-06-10T01:36:58.460Z,99.4
2018-06-10T01:38:07.087Z,99.4
2018-06-10T01:39:15.722Z,99.68
2018-06-10T01:40:24.348Z,99.68
2018-06-10T01:41:36.007Z,99.49
2018-06-10T01:42:44.896Z,99.99
2018-06-10T01:43:53.538Z,99.78
2018-06-10T01:45:02.180Z,99.3
2018-06-10T01:46:10.834Z,99.78
2018-06-10T01:47:19.481Z,99.78
2018-06-10T01:48:28.132Z,99.87
2018-06-10T01:49:36.771Z,99.58
2018-06-10T01:50:45.412Z,99.58
2018-06-10T01:51:54.041Z,99.58
2018-06-10T01:53:02.696Z,99.49
2018-06-10T01:54:11.347Z,99.58
2018-06-10T01:55:19.984Z,99.49
2018-06-10T01:56:28.635Z,99.54
2018-06-10T01:57:37.285Z,99.68
2018-06-10T01:58:46.205Z,99.63
2018-06-10T01:59:55.106Z,99.49
2018-06-10T02:01:03.755Z,99.68
2018-06-10T02:02:12.402Z,99.63
2018-06-10T02:03:21.054Z,99.25
2018-06-10T02:04:29.702Z,99.68
2018-06-10T02:05:38.616Z,99.68
2018-06-10T02:06:47.264Z,99.68
2018-06-10T02:07:55.917Z,99.58
2018-06-10T02:09:04.562Z,99.68
2018-06-10T02:10:13.741Z,99.78
2018-06-10T02:11:22.384Z,99.4
2018-06-10T02:12:31.290Z,99.82
2018-06-10T02:13:39.944Z,99.87
2018-06-10T02:14:48.596Z,99.49
2018-06-10T02:15:57.245Z,99.68
2018-06-10T02:17:06.155Z,99.68
2018-06-10T02:18:15.066Z,99.63
2018-06-10T02:19:23.978Z,99.63
2018-06-10T02:20:32.629Z,99.44
2018-06-10T02:21:41.274Z,99.82
2018-06-10T02:22:49.927Z,99.63
2018-06-10T02:23:58.570Z,99.63
2018-06-10T02:25:07.222Z,99.92
2018-06-10T02:26:15.866Z,99.68
2018-06-10T02:27:24.782Z,99.58
2018-06-10T02:28:33.431Z,99.82
2018-06-10T02:29:42.079Z,99.54
2018-06-10T02:30:50.732Z,99.63
2018-06-10T02:31:59.376Z,99.54
2018-06-10T02:33:08.024Z,99.63
2018-06-10T02:34:16.678Z,99.68
2018-06-10T02:35:25.332Z,99.73
2018-06-10T02:36:33.981Z,99.82
2018-06-10T02:37:42.893Z,99.97
2018-06-10T02:38:51.541Z,99.99
2018-06-10T02:40:00.193Z,99.92
2018-06-10T02:41:09.122Z,99.54
2018-06-10T02:42:18.044Z,99.73
2018-06-10T02:43:26.694Z,99.63
2018-06-10T02:44:35.349Z,99.54
2018-06-10T02:45:44.005Z,99.63
2018-06-10T02:46:52.916Z,99.92
2018-06-10T02:48:01.824Z,99.68
2018-06-10T02:49:11.276Z,99.68
2018-06-10T02:50:19.931Z,99.73
2018-06-10T02:51:28.845Z,99.68
2018-06-10T02:52:37.495Z,99.87
2018-06-10T02:53:46.141Z,99.82
2018-06-10T02:54:54.809Z,99.82
2018-06-10T02:56:03.718Z,99.73
2018-06-10T02:57:12.376Z,99.99
2018-06-10T02:58:21.016Z,99.99
2018-06-10T02:59:29.680Z,99.68
2018-06-10T03:00:38.324Z,99.99
2018-06-10T03:01:46.977Z,99.99
2018-06-10T03:02:55.632Z,99.99
2018-06-10T03:04:04.557Z,99.99
2018-06-10T03:05:13.476Z,99.99
2018-06-10T03:06:22.127Z,99.99
2018-06-10T03:07:30.781Z,99.99
2018-06-10T03:08:39.428Z,99.99
2018-06-10T03:09:48.081Z,99.99
2018-06-10T03:10:56.729Z,99.99
2018-06-10T03:12:05.387Z,99.99
2018-06-10T03:13:14.026Z,99.99
2018-06-10T03:14:22.696Z,99.99
2018-06-10T03:15:31.336Z,99.99
2018-06-10T03:16:40.528Z,99.99
2018-06-10T03:17:49.166Z,99.99
2018-06-10T03:18:57.814Z,99.99
2018-06-10T03:20:06.461Z,99.99
2018-06-10T03:21:15.117Z,99.73
2018-06-10T03:22:23.763Z,99.54
2018-06-10T03:23:32.410Z,99.63
2018-06-10T03:24:41.055Z,99.63
2018-06-10T03:25:49.698Z,99.73
2018-06-10T03:26:58.353Z,99.82
2018-06-10T03:28:06.996Z,99.54
2018-06-10T03:29:15.915Z,99.63
2018-06-10T03:30:24.560Z,99.63
2018-06-10T03:31:33.225Z,99.68
2018-06-10T03:32:41.870Z,99.05
2018-06-10T03:33:50.522Z,99.15
2018-06-10T03:34:59.158Z,99.44
2018-06-10T03:36:07.814Z,99.34
2018-06-10T03:37:16.458Z,99.25
2018-06-10T03:38:25.111Z,98.77
2018-06-10T03:39:33.743Z,99.44
2018-06-10T03:40:42.391Z,98.96
2018-06-10T03:41:51.044Z,99.05
2018-06-10T03:42:59.694Z,99.05
2018-06-10T03:44:08.343Z,98.58
2018-06-10T03:45:16.979Z,98.77
2018-06-10T03:46:25.630Z,98.82
2018-06-10T03:47:34.538Z,98.77
2018-06-10T03:48:43.194Z,99.01
2018-06-10T03:49:52.103Z,98.91
2018-06-10T03:51:00.755Z,98.86
2018-06-10T03:52:09.400Z,98.91
2018-06-10T03:53:18.308Z,98.91
2018-06-10T03:54:26.966Z,99.01
2018-06-10T03:55:35.605Z,98.96
2018-06-10T03:56:44.262Z,99.01
2018-06-10T03:57:52.901Z,98.96
2018-06-10T03:59:01.549Z,98.96
2018-06-10T04:00:10.201Z,98.19
2018-06-10T04:01:18.845Z,98.14
2018-06-10T04:02:27.493Z,98.38
2018-06-10T04:03:36.133Z,98.34
2018-06-10T04:04:44.784Z,98.43
2018-06-10T04:05:53.689Z,98.29
2018-06-10T04:07:02.350Z,98.53
2018-06-10T04:08:11.256Z,98.29
2018-06-10T04:09:19.908Z,97.96
2018-06-10T04:10:28.551Z,97.81
2018-06-10T04:11:37.205Z,97.91
2018-06-10T04:12:45.843Z,98.05
2018-06-10T04:13:54.757Z,98.14
2018-06-10T04:15:03.402Z,98.05
2018-06-10T04:16:12.062Z,98
2018-06-10T04:17:20.706Z,98.05
2018-06-10T04:18:29.350Z,98.1
2018-06-10T04:19:37.993Z,98.24
2018-06-10T04:20:46.637Z,98.19
2018-06-10T04:21:55.293Z,98.34
2018-06-10T04:23:03.936Z,98.14
2018-06-10T04:24:12.590Z,98.43
2018-06-10T04:25:21.493Z,98
2018-06-10T04:26:30.152Z,98
2018-06-10T04:27:39.061Z,98.19
2018-06-10T04:28:47.713Z,98.24
2018-06-10T04:29:56.357Z,97.81
2018-06-10T04:31:05.012Z,97.96
2018-06-10T04:32:13.662Z,97.76
2018-06-10T04:33:22.305Z,97.66
2018-06-10T04:34:30.947Z,97.57
2018-06-10T04:35:39.858Z,97.86
2018-06-10T04:36:48.510Z,97.66
2018-06-10T04:37:57.159Z,97.66
2018-06-10T04:39:05.810Z,97.86
2018-06-10T04:40:14.448Z,98.05
2018-06-10T04:41:23.098Z,97.86
2018-06-10T04:42:31.741Z,97.57
2018-06-10T04:43:40.400Z,97.38
2018-06-10T04:44:49.043Z,97.38
2018-06-10T04:45:57.691Z,97.96
2018-06-10T04:47:06.351Z,97.86
2018-06-10T04:48:15.326Z,97.66
2018-06-10T04:49:24.228Z,97.76
2018-06-10T04:50:32.877Z,97.57
2018-06-10T04:51:41.523Z,97.86
2018-06-10T04:52:50.177Z,97.66
2018-06-10T04:53:58.826Z,97.86
2018-06-10T04:55:07.471Z,97.86
2018-06-10T04:56:16.119Z,97.57
2018-06-10T04:57:24.764Z,97.66
2018-06-10T04:58:33.418Z,97.86
2018-06-10T04:59:42.065Z,97.66
2018-06-10T05:00:50.711Z,98.05
2018-06-10T05:01:59.352Z,97.66
2018-06-10T05:03:08.270Z,97.66
2018-06-10T05:04:16.919Z,97.66
2018-06-10T05:05:25.566Z,97.86
2018-06-10T05:06:34.209Z,97.57
2018-06-10T05:07:43.129Z,97.57
2018-06-10T05:08:51.775Z,97.86
2018-06-10T05:10:00.423Z,98.34
2018-06-10T05:11:09.064Z,98.43
2018-06-10T05:12:17.715Z,98.14
2018-06-10T05:13:26.366Z,98.14
2018-06-10T05:14:35.014Z,98.14
2018-06-10T05:15:43.663Z,98.14
2018-06-10T05:16:52.308Z,98.05
2018-06-10T05:18:00.957Z,98.14
2018-06-10T05:19:09.868Z,98.14
2018-06-10T05:20:18.519Z,97.86
2018-06-10T05:21:27.164Z,98.24
2018-06-10T05:22:35.811Z,97.86
2018-06-10T05:23:44.460Z,98.43
2018-06-10T05:24:53.110Z,98.34
2018-06-10T05:26:01.760Z,98.24
2018-06-10T05:27:10.692Z,98.43
2018-06-10T05:28:19.324Z,98.24
2018-06-10T05:29:27.972Z,98.05
2018-06-10T05:30:36.880Z,98.05
2018-06-10T05:31:45.528Z,98.34
2018-06-10T05:32:54.175Z,98.05
2018-06-10T05:34:02.825Z,98.05
2018-06-10T05:35:11.476Z,98.34
2018-06-10T05:36:20.383Z,98.43
2018-06-10T05:37:29.031Z,98.24
2018-06-10T05:38:37.934Z,98.43
2018-06-10T05:39:46.585Z,98.14
2018-06-10T05:40:55.234Z,98.05
2018-06-10T05:42:03.884Z,98.24
2018-06-10T05:43:12.528Z,97.76
2018-06-10T05:44:21.179Z,97.57
2018-06-10T05:45:29.825Z,97.66
2018-06-10T05:46:38.477Z,97.66
2018-06-10T05:47:47.117Z,97.57
2018-06-10T05:48:55.768Z,97.86
2018-06-10T05:50:04.419Z,97.47
2018-06-10T05:51:13.334Z,97.57
2018-06-10T05:52:21.979Z,97.19
2018-06-10T05:53:30.637Z,97.71
2018-06-10T05:54:39.281Z,97.66
2018-06-10T05:55:47.934Z,97.42
2018-06-10T05:56:56.573Z,97.24
2018-06-10T05:58:05.231Z,97.52
2018-06-10T05:59:13.878Z,97.71
2018-06-10T06:00:22.818Z,97.24
2018-06-10T06:01:31.456Z,97.14
2018-06-10T06:02:40.113Z,97.52
2018-06-10T06:03:48.758Z,97.14
2018-06-10T06:04:57.408Z,97.14
2018-06-10T06:06:06.048Z,97.14
2018-06-10T06:07:14.707Z,97.04
2018-06-10T06:08:23.355Z,97.52
2018-06-10T06:09:32.005Z,97.52
2018-06-10T06:10:40.916Z,97.42
2018-06-10T06:11:49.555Z,97.24
2018-06-10T06:12:58.210Z,97.52
2018-06-10T06:14:07.108Z,97.52
2018-06-10T06:15:15.765Z,97.33
2018-06-10T06:16:24.405Z,97.04
2018-06-10T06:17:33.061Z,97.04
2018-06-10T06:18:41.702Z,97.33
2018-06-10T06:19:50.359Z,97.33
2018-06-10T06:20:59.262Z,97.42
2018-06-10T06:22:07.912Z,97.52
2018-06-10T06:23:16.557Z,96.66
2018-06-10T06:24:25.218Z,96.94
2018-06-10T06:25:33.868Z,96.66
2018-06-10T06:26:42.510Z,96.85
2018-06-10T06:27:51.157Z,97.04
2018-06-10T06:28:59.801Z,97.52
2018-06-10T06:30:08.458Z,97.04
2018-06-10T06:31:17.102Z,97.52
2018-06-10T06:32:25.763Z,97.52
2018-06-10T06:33:34.661Z,97.52
2018-06-10T06:34:43.320Z,97.52
2018-06-10T06:35:51.964Z,97.42
2018-06-10T06:37:00.880Z,97.52
2018-06-10T06:38:09.518Z,97.24
2018-06-10T06:39:18.203Z,97.33
2018-06-10T06:40:26.821Z,97.04
2018-06-10T06:41:35.470Z,97.14
2018-06-10T06:42:44.109Z,97.33
2018-06-10T06:43:53.018Z,97.33
2018-06-10T06:45:01.675Z,96.99
2018-06-10T06:46:10.585Z,97.52
2018-06-10T06:47:19.236Z,97.52
2018-06-10T06:48:27.873Z,97.14
2018-06-10T06:49:36.840Z,96.94
2018-06-10T06:50:45.489Z,96.99
2018-06-10T06:51:54.150Z,96.8
2018-06-10T06:53:02.787Z,97.09
2018-06-10T06:54:11.440Z,96.9
2018-06-10T06:55:20.345Z,97.09
2018-06-10T06:56:29.000Z,96.51
2018-06-10T06:57:37.647Z,97.09
2018-06-10T06:58:46.299Z,96.51
2018-06-10T06:59:54.943Z,96.8
2018-06-10T07:01:03.597Z,96.8
2018-06-10T07:02:12.243Z,96.8
2018-06-10T07:03:20.893Z,96.61
2018-06-10T07:04:29.539Z,96.32
2018-06-10T07:05:38.188Z,96.32
2018-06-10T07:06:46.840Z,96.42
2018-06-10T07:07:55.488Z,95.94
2018-06-10T07:09:04.136Z,96.32
2018-06-10T07:10:12.784Z,95.84
2018-06-10T07:11:21.435Z,95.36
2018-06-10T07:12:30.083Z,95.55
2018-06-10T07:13:38.732Z,95.36
2018-06-10T07:14:47.374Z,95.6
2018-06-10T07:15:56.032Z,95.12
2018-06-10T07:17:04.677Z,95.21
2018-06-10T07:18:13.337Z,95.4
2018-06-10T07:19:22.243Z,95.21
2018-06-10T07:20:30.894Z,95.12
2018-06-10T07:21:39.544Z,94.92
2018-06-10T07:22:48.194Z,94.92
2018-06-10T07:23:57.114Z,95.12
2018-06-10T07:25:05.758Z,94.25
2018-06-10T07:26:14.409Z,94.92
2018-06-10T07:27:23.059Z,94.73
2018-06-10T07:28:31.712Z,94.83
2018-06-10T07:29:40.354Z,94.64
2018-06-10T07:30:49.003Z,94.45
2018-06-10T07:31:57.651Z,93.87
2018-06-10T07:33:06.305Z,94.45
2018-06-10T07:34:14.949Z,94.49
2018-06-10T07:35:23.602Z,94.01
2018-06-10T07:36:32.253Z,94.3
2018-06-10T07:37:40.908Z,93.24
2018-06-10T07:38:49.557Z,93.24
2018-06-10T07:39:58.207Z,93.53
2018-06-10T07:41:07.114Z,92.85
2018-06-10T07:42:16.026Z,93.53
2018-06-10T07:43:24.682Z,93.82
2018-06-10T07:44:33.333Z,93.62
2018-06-10T07:45:42.266Z,93.62
2018-06-10T07:46:50.911Z,93.53
2018-06-10T07:47:59.563Z,93
2018-06-10T07:49:08.482Z,93
2018-06-10T07:50:17.137Z,92.8
2018-06-10T07:51:25.792Z,91.55
2018-06-10T07:52:34.439Z,92.32
2018-06-10T07:53:43.092Z,92.32
2018-06-10T07:54:52.001Z,91.94
2018-06-10T07:56:00.656Z,91.27
2018-06-10T07:57:09.303Z,91.36
2018-06-10T07:58:17.953Z,91.55
2018-06-10T07:59:26.601Z,91.46
2018-06-10T08:00:35.249Z,90.54
2018-06-10T08:01:43.901Z,90.44
2018-06-10T08:02:52.819Z,91.02
2018-06-10T08:04:01.470Z,91.12
2018-06-10T08:05:10.112Z,90.25
2018-06-10T08:06:18.767Z,90.44
2018-06-10T08:07:27.420Z,89.58
2018-06-10T08:08:36.072Z,90.54
2018-06-10T08:09:44.717Z,89.86
2018-06-10T08:10:53.372Z,90.68
2018-06-10T08:12:02.046Z,90.97
2018-06-10T08:13:10.676Z,89.62
2018-06-10T08:14:19.322Z,88.95
2018-06-10T08:15:27.977Z,89.62
2018-06-10T08:16:36.628Z,90.3
2018-06-10T08:17:45.279Z,90.15
2018-06-10T08:18:53.932Z,89.91
2018-06-10T08:20:02.580Z,88.17
2018-06-10T08:21:11.228Z,88.37
2018-06-10T08:22:19.880Z,88.17
2018-06-10T08:23:28.540Z,89.23
2018-06-10T08:24:37.188Z,88.65
2018-06-10T08:25:45.838Z,88.17
2018-06-10T08:26:54.752Z,88.37
2018-06-10T08:28:03.941Z,89.53
2018-06-10T08:29:12.590Z,89.72
2018-06-10T08:30:21.247Z,88.65
2018-06-10T08:31:30.160Z,88.85
2018-06-10T08:32:39.081Z,87.6
2018-06-10T08:33:47.729Z,89.33
2018-06-10T08:34:56.380Z,87.88
2018-06-10T08:36:05.029Z,87.84
2018-06-10T08:37:13.679Z,88.17
2018-06-10T08:38:22.333Z,89.96
2018-06-10T08:39:30.987Z,90.48
2018-06-10T08:40:39.635Z,90.34
2018-06-10T08:41:48.280Z,90
2018-06-10T08:42:56.936Z,89.62
2018-06-10T08:44:05.630Z,90
2018-06-10T08:45:14.239Z,89.53
2018-06-10T08:46:22.881Z,89.72
2018-06-10T08:47:31.542Z,89.04
2018-06-10T08:48:40.199Z,88.95
2018-06-10T08:49:48.853Z,87.21
2018-06-10T08:50:57.500Z,87.21
2018-06-10T08:52:06.415Z,87.02
2018-06-10T08:53:15.346Z,87.6
2018-06-10T08:54:23.999Z,88.51
2018-06-10T08:55:32.657Z,88.85
2018-06-10T08:56:41.298Z,89.62
2018-06-10T08:57:49.954Z,89.81
2018-06-10T08:58:58.600Z,90
2018-06-10T09:00:07.260Z,89.62
2018-06-10T09:01:15.903Z,89.62
2018-06-10T09:02:24.558Z,89.62
2018-06-10T09:03:33.205Z,90.2
2018-06-10T09:04:41.866Z,90.3
2018-06-10T09:05:50.510Z,90
2018-06-10T09:06:59.164Z,90
2018-06-10T09:08:07.823Z,89.62
2018-06-10T09:09:16.479Z,88.46
2018-06-10T09:11:33.775Z,89.04
2018-06-10T09:12:42.423Z,89.72
2018-06-10T09:13:51.336Z,89.33
2018-06-10T09:14:59.998Z,88.17
2018-06-10T09:16:08.911Z,88.7
2018-06-10T09:17:17.565Z,88.85
2018-06-10T09:18:26.210Z,87.5
2018-06-10T09:19:35.132Z,89.33
2018-06-10T09:20:43.785Z,90
2018-06-10T09:21:52.441Z,89.62
2018-06-10T09:23:01.080Z,88.85
2018-06-10T09:24:09.744Z,87.21
2018-06-10T09:25:18.388Z,87.02
2018-06-10T09:26:27.042Z,87.02
2018-06-10T09:27:35.943Z,87.6
2018-06-10T09:28:44.872Z,87.3
2018-06-10T09:29:53.522Z,87.45
2018-06-10T09:31:02.451Z,86.1
2018-06-10T09:32:11.105Z,86.87
2018-06-10T09:33:19.752Z,85.52
2018-06-10T09:34:28.402Z,84.27
2018-06-10T09:35:37.051Z,83.98
2018-06-10T09:36:45.714Z,83.59
2018-06-10T09:37:54.360Z,85.13
2018-06-10T09:39:03.021Z,84.17
2018-06-10T09:40:11.928Z,85.23
2018-06-10T09:41:20.854Z,85.13
2018-06-10T09:42:29.500Z,86.1
2018-06-10T09:43:38.419Z,86.68
2018-06-10T09:44:47.067Z,86.29
2018-06-10T09:45:55.992Z,87.26
2018-06-10T09:47:04.637Z,87.54
2018-06-10T09:48:13.291Z,87.54
2018-06-10T09:49:21.947Z,86
2018-06-10T09:50:30.859Z,85.91
2018-06-10T09:51:39.516Z,86.58
2018-06-10T09:52:48.167Z,86.77
2018-06-10T09:53:56.822Z,86.77
2018-06-10T09:55:05.819Z,86.96
2018-06-10T09:56:14.754Z,87.54
2018-06-10T09:57:23.411Z,85.91
2018-06-10T09:58:32.328Z,86.87
2018-06-10T09:59:40.970Z,86.19
2018-06-10T10:00:49.626Z,86.87
2018-06-10T10:01:58.276Z,86.92
2018-06-10T10:03:06.932Z,87.98
2018-06-10T10:04:15.580Z,88.17
2018-06-10T10:05:24.235Z,86.54
2018-06-10T10:06:33.149Z,87.45
2018-06-10T10:07:41.804Z,88.65
2018-06-10T10:08:50.490Z,88.17
2018-06-10T10:09:59.101Z,88.56
2018-06-10T10:11:07.752Z,89.14
2018-06-10T10:12:16.402Z,89.62
2018-06-10T10:13:25.066Z,90.2
2018-06-10T10:14:34.045Z,89.62
2018-06-10T10:15:42.625Z,89.14
2018-06-10T10:16:51.287Z,88.85
2018-06-10T10:17:59.948Z,87.98
2018-06-10T10:19:08.592Z,86.73
2018-06-10T10:20:17.247Z,87.4
2018-06-10T10:21:25.897Z,87.7
2018-06-10T10:22:34.556Z,87.21
2018-06-10T10:23:43.206Z,88.46
2018-06-10T10:24:51.862Z,87.21
2018-06-10T10:26:00.500Z,86.63
2018-06-10T10:27:09.154Z,87.79
2018-06-10T10:28:18.077Z,88.37
2018-06-10T10:29:26.729Z,87.98
2018-06-10T10:30:35.379Z,85.86
2018-06-10T10:31:44.290Z,85.91
2018-06-10T10:32:53.213Z,86.44
2018-06-10T10:34:02.125Z,84.84
2018-06-10T10:35:10.777Z,84.84
2018-06-10T10:36:19.424Z,84.27
2018-06-10T10:37:28.080Z,84.17
2018-06-10T10:38:36.791Z,84.27
2018-06-10T10:39:45.389Z,85.33
2018-06-10T10:40:54.035Z,84.84
2018-06-10T10:42:02.690Z,83.98
2018-06-10T10:43:11.341Z,84.17
2018-06-10T10:44:19.997Z,83.98
2018-06-10T10:45:28.912Z,83.11
2018-06-10T10:46:37.553Z,83.3
2018-06-10T10:47:46.209Z,83.5
2018-06-10T10:48:54.905Z,83.2
2018-06-10T10:50:03.519Z,84.01
2018-06-10T10:51:12.164Z,83.63
2018-06-10T10:52:20.819Z,83.44
2018-06-10T10:53:29.469Z,81.99
2018-06-10T10:54:38.128Z,82.48
2018-06-10T10:55:46.771Z,81.51
2018-06-10T10:56:55.425Z,82.86
2018-06-10T10:58:04.087Z,82.38
2018-06-10T10:59:12.752Z,81.8
2018-06-10T11:00:21.401Z,81.99
2018-06-10T11:01:30.048Z,81.45
2018-06-10T11:02:38.701Z,82.42
2018-06-10T11:03:47.351Z,82.32
2018-06-10T11:04:56.015Z,82.32
2018-06-10T11:06:04.665Z,83.39
2018-06-10T11:07:13.321Z,82.51
2018-06-10T11:08:22.237Z,81.8
2018-06-10T11:09:30.897Z,82.57
2018-06-10T11:10:39.545Z,83.34
2018-06-10T11:11:48.465Z,83.92
2018-06-10T11:12:57.111Z,83.73
2018-06-10T11:14:05.772Z,83.83
2018-06-10T11:15:14.424Z,83
2018-06-10T11:16:23.082Z,82.28
2018-06-10T11:17:31.984Z,82.28
2018-06-10T11:18:40.644Z,83.73
2018-06-10T11:19:49.562Z,84.01
2018-06-10T11:20:58.221Z,82.67
2018-06-10T11:22:06.871Z,82.67
2018-06-10T11:23:15.518Z,82.96
2018-06-10T11:24:24.176Z,83.73
2018-06-10T11:25:33.088Z,83.53
2018-06-10T11:26:41.753Z,83.53
2018-06-10T11:27:50.391Z,81.7
2018-06-10T11:28:59.052Z,83.05
2018-06-10T11:30:07.960Z,83.53
2018-06-10T11:31:16.621Z,81.7
2018-06-10T11:32:25.263Z,82.18
2018-06-10T11:33:33.918Z,81.7
2018-06-10T11:34:42.569Z,81.51
2018-06-10T11:35:51.239Z,81.37
2018-06-10T11:36:59.883Z,82.34
2018-06-10T11:38:08.804Z,82.38
2018-06-10T11:39:17.718Z,81.22
2018-06-10T11:40:26.630Z,82.09
2018-06-10T11:41:35.293Z,81.12
2018-06-10T11:42:43.943Z,81.6
2018-06-10T11:43:52.596Z,83.05
2018-06-10T11:45:01.518Z,81.74
2018-06-10T11:46:10.421Z,81.07
2018-06-10T11:47:19.077Z,82.42
2018-06-10T11:48:27.723Z,80.62
2018-06-10T11:49:36.384Z,80.33
2018-06-10T11:50:45.032Z,79.95
2018-06-10T11:51:53.697Z,79.85
2018-06-10T11:53:02.347Z,78.92
2018-06-10T11:54:11.009Z,79.02
2018-06-10T11:55:19.664Z,77.15
2018-06-10T11:56:28.312Z,78.41
2018-06-10T11:57:36.963Z,76.76
2018-06-10T11:58:45.876Z,78.5
2018-06-10T11:59:54.542Z,79.43
2018-06-10T12:01:03.456Z,78.46
2018-06-10T12:02:12.122Z,80.3
2018-06-10T12:03:20.760Z,81.45
2018-06-10T12:04:29.421Z,81.55
2018-06-10T12:05:38.072Z,81.01
2018-06-10T12:06:46.728Z,80.14
2018-06-10T12:07:55.429Z,79.08
2018-06-10T12:09:04.034Z,79.08
2018-06-10T12:10:12.685Z,78.41
2018-06-10T12:11:21.601Z,78.11
2018-06-10T12:12:30.246Z,77.25
2018-06-10T12:13:38.951Z,77.05
2018-06-10T12:14:47.562Z,79.66
2018-06-10T12:15:56.217Z,80.33
2018-06-10T12:17:04.875Z,77.34
2018-06-10T12:18:13.523Z,78.5
2018-06-10T12:19:22.443Z,77.83
2018-06-10T12:20:31.614Z,77.63
2018-06-10T12:21:40.276Z,78.79
2018-06-10T12:22:48.990Z,78.79
2018-06-10T12:23:57.577Z,77.48
2018-06-10T12:25:06.224Z,77.19
2018-06-10T12:26:14.886Z,77
2018-06-10T12:27:23.529Z,77
2018-06-10T12:28:32.187Z,76.7
2018-06-10T12:29:40.839Z,75.29
2018-06-10T12:30:49.500Z,75.06
2018-06-10T12:31:58.417Z,77.03
2018-06-10T12:33:07.065Z,77.61
2018-06-10T12:34:15.980Z,77.22
2018-06-10T12:35:24.634Z,75.78
2018-06-10T12:36:33.293Z,75.29
2018-06-10T12:37:41.948Z,74.9
2018-06-10T12:38:50.605Z,75.54
2018-06-10T12:39:59.250Z,77.67
2018-06-10T12:41:07.912Z,77.38
2018-06-10T12:42:16.834Z,77.28
2018-06-10T12:43:25.495Z,74.87
2018-06-10T12:44:34.143Z,74.77
2018-06-10T12:45:42.802Z,76.8
2018-06-10T12:46:51.456Z,78.83
2018-06-10T12:48:00.108Z,77.48
2018-06-10T12:49:08.900Z,77.09
2018-06-10T12:50:17.414Z,77.09
2018-06-10T12:51:26.067Z,76.7
2018-06-10T12:52:34.983Z,76.64
2018-06-10T12:53:43.639Z,74.23
2018-06-10T12:54:52.289Z,75.2
2018-06-10T12:56:00.942Z,75.2
2018-06-10T12:57:09.597Z,74.42
2018-06-10T12:58:18.254Z,75.39
2018-06-10T12:59:26.901Z,76.55
2018-06-10T13:00:35.555Z,75.29
2018-06-10T13:01:44.214Z,76.35
2018-06-10T13:02:53.145Z,76.35
2018-06-10T13:04:02.058Z,76.74
2018-06-10T13:05:10.715Z,75.29
2018-06-10T13:06:19.365Z,77.13
2018-06-10T13:07:28.025Z,75
2018-06-10T13:08:36.677Z,76.9
2018-06-10T13:09:45.330Z,76.9
2018-06-10T13:10:53.999Z,74.96
2018-06-10T13:12:02.653Z,75.16
2018-06-10T13:13:11.576Z,75.54
2018-06-10T13:14:20.230Z,76.8
2018-06-10T13:15:28.886Z,77.13
2018-06-10T13:16:37.534Z,74.13
2018-06-10T13:17:46.193Z,74.42
2018-06-10T13:18:54.845Z,74.36
2018-06-10T13:20:03.498Z,74.27
2018-06-10T13:21:12.147Z,74.4
2018-06-10T13:22:20.805Z,73.24
2018-06-10T13:23:29.985Z,72.46
2018-06-10T13:24:38.640Z,72.91
2018-06-10T13:25:47.286Z,76.62
2018-06-10T13:26:55.939Z,73.97
2018-06-10T13:28:04.592Z,74.36
2018-06-10T13:29:13.247Z,75.62
2018-06-10T13:30:21.906Z,74.46
2018-06-10T13:31:30.554Z,75.33
2018-06-10T13:32:39.210Z,74.94
2018-06-10T13:33:47.898Z,75.23
2018-06-10T13:34:56.523Z,75.62
2018-06-10T13:36:05.178Z,75.91
2018-06-10T13:37:14.100Z,73.39
2018-06-10T13:38:22.755Z,72.81
2018-06-10T13:39:31.415Z,74.49
2018-06-10T13:40:40.063Z,75.17
2018-06-10T13:41:48.718Z,74.11
2018-06-10T13:42:57.371Z,74.3
2018-06-10T13:44:06.295Z,72.56
2018-06-10T13:45:14.948Z,74.49
2018-06-10T13:46:23.603Z,72.27
2018-06-10T13:47:32.259Z,73.91
2018-06-10T13:48:41.175Z,71.11
2018-06-10T13:49:50.100Z,72.56
2018-06-10T13:50:59.029Z,71.69
2018-06-10T13:52:07.960Z,71.69
2018-06-10T13:53:16.610Z,72.95
2018-06-10T13:54:25.271Z,73.63
2018-06-10T13:55:33.926Z,72.5
2018-06-10T13:56:43.111Z,72.98
2018-06-10T13:57:51.756Z,68.73
2018-06-10T13:59:00.413Z,70.08
2018-06-10T14:00:09.065Z,71.72
2018-06-10T14:01:17.986Z,70.95
2018-06-10T14:02:26.650Z,70.62
2018-06-10T14:03:35.568Z,71.34
2018-06-10T14:04:44.220Z,71.69
2018-06-10T14:05:52.871Z,71.98
2018-06-10T14:07:01.532Z,72.08
2018-06-10T14:08:10.177Z,70.72
2018-06-10T14:09:18.832Z,72.75
2018-06-10T14:10:27.493Z,71.2
2018-06-10T14:11:36.412Z,71.4
2018-06-10T14:12:45.062Z,70.98
2018-06-10T14:13:53.717Z,72.42
2018-06-10T14:15:02.369Z,72.56
2018-06-10T14:16:11.032Z,73.91
2018-06-10T14:17:19.678Z,73.59
2018-06-10T14:18:28.599Z,72.95
2018-06-10T14:19:37.249Z,73.1
2018-06-10T14:20:46.441Z,71.75
2018-06-10T14:21:55.094Z,73.78
2018-06-10T14:23:03.748Z,72.72
2018-06-10T14:24:12.398Z,73.2
2018-06-10T14:25:21.310Z,71.46
2018-06-10T14:26:29.969Z,72.91
2018-06-10T14:27:38.899Z,71.46
2018-06-10T14:28:47.816Z,72.14
2018-06-10T14:29:56.466Z,71.59
2018-06-10T14:31:05.405Z,72.85
2018-06-10T14:32:14.052Z,71.78
2018-06-10T14:33:22.710Z,72.27
2018-06-10T14:34:31.360Z,71.4
2018-06-10T14:35:40.277Z,72.46
2018-06-10T14:36:48.926Z,70.72
2018-06-10T14:37:57.657Z,72.08
2018-06-10T14:39:06.231Z,71.11
2018-06-10T14:40:15.152Z,73.27
2018-06-10T14:41:23.809Z,72.5
2018-06-10T14:42:32.468Z,73.75
2018-06-10T14:43:41.119Z,73.66
2018-06-10T14:44:49.763Z,70.66
2018-06-10T14:45:58.421Z,72.5
2018-06-10T14:47:07.070Z,71.82
2018-06-10T14:48:15.732Z,71.82
2018-06-10T14:49:24.379Z,72.79
2018-06-10T14:50:33.038Z,72.11